createdAt,value
2019-03-29T00:01:03.814Z,82.80
2019-03-29T00:04:08.038Z,83.00
2019-03-29T00:07:12.292Z,83.80
2019-03-29T00:10:17.638Z,83.80
2019-03-29T00:13:23.023Z,84.40
2019-03-29T00:16:27.340Z,84.30
2019-03-29T00:19:31.898Z,84.60
2019-03-29T00:22:36.136Z,84.90
2019-03-29T00:25:40.348Z,85.00
2019-03-29T00:28:44.826Z,85.00
2019-03-29T00:31:49.077Z,85.20
2019-03-29T00:34:53.896Z,85.40
2019-03-29T00:37:58.253Z,85.60
2019-03-29T00:41:02.885Z,85.50
2019-03-29T00:44:07.155Z,85.50
2019-03-29T00:47:11.385Z,85.50
2019-03-29T00:50:15.678Z,86.20
2019-03-29T00:53:19.877Z,85.20
2019-03-29T00:56:24.174Z,85.20
2019-03-29T00:59:28.368Z,85.30
2019-03-29T01:02:32.654Z,85.10
2019-03-29T01:05:36.865Z,85.00
2019-03-29T01:08:41.531Z,83.60
2019-03-29T01:11:45.795Z,85.20
2019-03-29T01:14:50.029Z,85.40
2019-03-29T01:17:54.266Z,85.40
2019-03-29T01:20:58.483Z,85.40
2019-03-29T01:24:02.985Z,85.40
2019-03-29T01:27:07.306Z,85.20
2019-03-29T01:30:11.934Z,85.80
2019-03-29T01:33:16.173Z,86.00
2019-03-29T01:36:20.385Z,86.40
2019-03-29T01:39:24.605Z,85.00
2019-03-29T01:42:28.839Z,84.70
2019-03-29T01:45:33.192Z,85.00
2019-03-29T01:48:37.481Z,85.00
2019-03-29T01:51:41.710Z,86.10
2019-03-29T01:54:45.940Z,86.30
2019-03-29T01:57:50.171Z,86.50
2019-03-29T02:00:54.372Z,86.20
2019-03-29T02:03:58.635Z,86.50
2019-03-29T02:07:02.837Z,87.10
2019-03-29T02:10:09.519Z,87.10
2019-03-29T02:13:13.809Z,87.20
2019-03-29T02:16:18.067Z,87.10
2019-03-29T02:19:22.256Z,87.10
2019-03-29T02:22:26.478Z,87.60
2019-03-29T02:25:30.662Z,88.50
2019-03-29T02:28:35.013Z,88.30
2019-03-29T02:31:42.144Z,88.30
2019-03-29T02:34:45.422Z,88.10
2019-03-29T02:37:49.660Z,88.00
2019-03-29T02:40:54.907Z,87.90
2019-03-29T02:43:59.121Z,88.30
2019-03-29T02:47:03.397Z,87.90
2019-03-29T02:50:09.107Z,87.80
2019-03-29T02:53:13.593Z,87.90
2019-03-29T02:56:17.858Z,88.90
2019-03-29T02:59:22.052Z,87.20
2019-03-29T03:02:26.755Z,87.10
2019-03-29T03:05:31.221Z,87.20
2019-03-29T03:08:35.508Z,87.60
2019-03-29T03:11:39.745Z,87.40
2019-03-29T03:14:44.032Z,87.50
2019-03-29T03:17:48.234Z,87.40
2019-03-29T03:20:52.463Z,87.80
2019-03-29T03:23:56.712Z,87.50
2019-03-29T03:27:01.082Z,87.60
2019-03-29T03:30:09.775Z,87.70
2019-03-29T03:33:14.128Z,87.70
2019-03-29T03:36:18.411Z,87.90
2019-03-29T03:39:31.565Z,87.50
2019-03-29T03:42:28.609Z,88.10
2019-03-29T03:45:32.885Z,87.70
2019-03-29T03:48:37.193Z,87.10
2019-03-29T03:51:41.757Z,86.60
2019-03-29T03:54:46.065Z,86.20
2019-03-29T03:57:50.543Z,86.40
2019-03-29T04:00:56.933Z,86.90
2019-03-29T04:04:01.257Z,86.10
2019-03-29T04:07:05.521Z,85.10
2019-03-29T04:10:09.813Z,84.20
2019-03-29T04:13:14.059Z,85.20
2019-03-29T04:16:18.339Z,85.40
2019-03-29T04:19:22.626Z,85.60
2019-03-29T04:22:26.835Z,85.70
2019-03-29T04:25:31.291Z,85.90
2019-03-29T04:28:35.535Z,86.10
2019-03-29T04:31:39.848Z,86.10
2019-03-29T04:34:44.542Z,85.90
2019-03-29T04:37:48.937Z,85.70
2019-03-29T04:40:53.198Z,85.00
2019-03-29T04:43:57.410Z,86.20
2019-03-29T04:47:01.646Z,86.10
2019-03-29T04:50:06.157Z,86.20
2019-03-29T04:53:10.346Z,86.30
2019-03-29T04:56:14.649Z,86.30
2019-03-29T04:59:18.885Z,84.40
2019-03-29T05:02:23.229Z,83.00
2019-03-29T05:05:27.477Z,82.20
2019-03-29T05:08:31.901Z,82.80
2019-03-29T05:11:36.223Z,84.70
2019-03-29T05:14:40.488Z,84.70
2019-03-29T05:17:44.692Z,83.20
2019-03-29T05:20:48.951Z,82.60
2019-03-29T05:23:53.202Z,83.60
2019-03-29T05:26:57.417Z,85.10
2019-03-29T05:30:01.664Z,85.60
2019-03-29T05:33:05.849Z,85.90
2019-03-29T05:36:10.076Z,85.70
2019-03-29T05:39:14.387Z,85.10
2019-03-29T05:42:18.576Z,82.60
2019-03-29T05:45:23.085Z,82.30
2019-03-29T05:48:27.301Z,82.00
2019-03-29T05:51:31.502Z,82.80
2019-03-29T05:54:35.735Z,82.30
2019-03-29T05:57:40.022Z,81.90
2019-03-29T06:00:44.589Z,81.50
2019-03-29T06:03:48.865Z,81.60
2019-03-29T06:06:53.342Z,81.80
2019-03-29T06:09:57.603Z,81.10
2019-03-29T06:13:02.237Z,79.20
2019-03-29T06:16:06.517Z,78.50
2019-03-29T06:19:10.801Z,77.80
2019-03-29T06:22:15.125Z,78.40
2019-03-29T06:25:19.381Z,78.60
2019-03-29T06:28:23.666Z,77.60
2019-03-29T06:31:27.920Z,76.60
2019-03-29T06:34:32.135Z,76.10
2019-03-29T06:37:38.108Z,75.80
2019-03-29T06:40:42.309Z,76.10
2019-03-29T06:43:46.532Z,74.80
2019-03-29T06:46:51.654Z,74.80
2019-03-29T06:49:55.962Z,75.40
2019-03-29T06:53:00.235Z,75.00
2019-03-29T06:56:04.597Z,74.30
2019-03-29T06:59:08.800Z,74.20
2019-03-29T07:02:13.170Z,74.60
2019-03-29T07:05:17.382Z,73.70
2019-03-29T07:08:21.628Z,73.20
2019-03-29T07:11:25.905Z,73.30
2019-03-29T07:14:30.277Z,73.00
2019-03-29T07:17:34.502Z,73.10
2019-03-29T07:20:38.758Z,73.30
2019-03-29T07:23:42.994Z,71.20
2019-03-29T07:26:47.204Z,71.70
2019-03-29T07:29:51.814Z,72.10
2019-03-29T07:32:56.075Z,71.20
2019-03-29T07:36:00.317Z,72.00
2019-03-29T07:39:06.357Z,71.30
2019-03-29T07:42:10.546Z,71.70
2019-03-29T07:45:14.856Z,72.30
2019-03-29T07:48:19.088Z,71.30
2019-03-29T07:51:23.618Z,70.80
2019-03-29T07:54:27.881Z,70.60
2019-03-29T07:57:32.153Z,71.50
2019-03-29T08:00:36.922Z,70.90
2019-03-29T08:03:41.155Z,69.90
2019-03-29T08:06:46.659Z,70.30
2019-03-29T08:09:51.027Z,68.50
2019-03-29T08:12:55.405Z,67.50
2019-03-29T08:15:59.638Z,68.00
2019-03-29T08:19:03.877Z,65.70
2019-03-29T08:22:08.378Z,65.60
2019-03-29T08:25:12.690Z,63.80
2019-03-29T08:28:16.905Z,63.90
2019-03-29T08:31:21.201Z,62.40
2019-03-29T08:34:25.466Z,62.10
2019-03-29T08:37:29.956Z,63.90
2019-03-29T08:40:34.206Z,63.90
2019-03-29T08:43:38.423Z,63.80
2019-03-29T08:46:42.656Z,63.70
2019-03-29T08:49:46.970Z,63.70
2019-03-29T08:52:51.177Z,63.80
2019-03-29T08:55:55.401Z,63.70
2019-03-29T08:58:59.749Z,63.10
2019-03-29T09:02:04.151Z,63.20
2019-03-29T09:05:09.137Z,62.40
2019-03-29T09:08:13.917Z,62.30
2019-03-29T09:11:18.170Z,62.70
2019-03-29T09:14:22.500Z,63.20
2019-03-29T09:17:26.784Z,63.80
2019-03-29T09:20:34.237Z,63.80
2019-03-29T09:23:37.017Z,62.90
2019-03-29T09:26:41.265Z,63.20
2019-03-29T09:29:45.464Z,62.90
2019-03-29T09:32:51.546Z,64.30
2019-03-29T09:35:55.654Z,65.20
2019-03-29T09:38:59.894Z,64.50
2019-03-29T09:42:04.196Z,63.90
2019-03-29T09:45:08.974Z,62.40
2019-03-29T09:48:13.226Z,62.80
2019-03-29T09:51:17.477Z,61.00
2019-03-29T09:54:22.627Z,61.00
2019-03-29T09:57:37.270Z,61.80
2019-03-29T10:00:32.881Z,61.30
2019-03-29T10:03:37.378Z,60.20
2019-03-29T10:06:41.725Z,61.20
2019-03-29T10:09:45.990Z,63.30
2019-03-29T10:12:50.400Z,61.90
2019-03-29T10:15:55.552Z,61.60
2019-03-29T10:19:00.122Z,60.80
2019-03-29T10:22:04.349Z,59.60
2019-03-29T10:25:19.135Z,56.70
2019-03-29T10:28:14.911Z,58.40
2019-03-29T10:31:31.630Z,57.60
2019-03-29T10:34:26.038Z,58.20
2019-03-29T10:37:30.597Z,56.90
2019-03-29T10:40:34.818Z,55.60
2019-03-29T10:43:39.506Z,53.90
2019-03-29T10:46:43.806Z,53.70
2019-03-29T10:49:48.250Z,53.00
2019-03-29T10:52:52.497Z,53.00
2019-03-29T10:55:56.708Z,49.80
2019-03-29T10:59:00.946Z,48.70
2019-03-29T11:02:05.491Z,48.70
2019-03-29T11:05:10.336Z,47.50
2019-03-29T11:08:14.751Z,45.80
2019-03-29T11:11:19.180Z,43.00
2019-03-29T11:14:23.469Z,43.90
2019-03-29T11:17:27.712Z,43.00
2019-03-29T11:20:32.005Z,42.90
2019-03-29T11:23:36.368Z,42.60
2019-03-29T11:26:40.681Z,41.60
2019-03-29T11:29:44.875Z,42.70
2019-03-29T11:32:49.238Z,44.10
2019-03-29T11:35:53.463Z,42.90
2019-03-29T11:38:57.720Z,43.90
2019-03-29T11:42:03.653Z,42.90
2019-03-29T11:45:08.737Z,42.70
2019-03-29T11:48:12.981Z,43.00
2019-03-29T11:51:19.626Z,43.60
2019-03-29T11:54:24.701Z,44.00
2019-03-29T11:57:28.905Z,43.90
2019-03-29T12:00:39.318Z,44.60
2019-03-29T12:03:43.526Z,44.60
2019-03-29T12:06:47.836Z,44.90
2019-03-29T12:09:52.109Z,44.80
2019-03-29T12:12:56.520Z,45.40
2019-03-29T12:16:00.889Z,44.80
2019-03-29T12:19:05.149Z,43.80
2019-03-29T12:22:09.370Z,44.00
2019-03-29T12:25:13.702Z,44.00
2019-03-29T12:28:17.923Z,43.70
2019-03-29T12:31:22.205Z,43.70
2019-03-29T12:34:26.809Z,42.90
2019-03-29T12:37:31.037Z,43.50
2019-03-29T12:40:35.290Z,43.70
2019-03-29T12:43:39.552Z,42.20
2019-03-29T12:46:43.805Z,42.20
2019-03-29T12:49:48.029Z,42.20
2019-03-29T12:52:52.228Z,43.00
2019-03-29T12:55:56.773Z,42.20
2019-03-29T12:59:00.957Z,43.10
2019-03-29T13:02:05.373Z,43.60
2019-03-29T13:05:10.143Z,44.20
2019-03-29T13:08:14.429Z,44.50
2019-03-29T13:11:18.630Z,45.30
2019-03-29T13:14:23.697Z,45.10
2019-03-29T13:17:28.678Z,44.80
2019-03-29T13:20:33.211Z,45.70
2019-03-29T13:23:37.504Z,44.00
2019-03-29T13:26:41.755Z,43.70
2019-03-29T13:29:45.996Z,43.10
2019-03-29T13:32:50.442Z,43.60
2019-03-29T13:35:54.665Z,44.50
2019-03-29T13:38:58.902Z,44.60
2019-03-29T13:42:03.124Z,44.60
2019-03-29T13:45:09.274Z,44.80
2019-03-29T13:48:13.554Z,44.80
2019-03-29T13:51:17.844Z,44.80
2019-03-29T13:54:22.061Z,44.50
2019-03-29T13:57:27.177Z,45.00
2019-03-29T14:00:31.475Z,44.20
2019-03-29T14:03:35.725Z,44.20
2019-03-29T14:06:40.199Z,44.10
2019-03-29T14:09:44.454Z,44.20
2019-03-29T14:12:48.691Z,45.20
2019-03-29T14:15:52.890Z,44.70
2019-03-29T14:18:57.228Z,45.40
2019-03-29T14:22:01.427Z,44.80
2019-03-29T14:25:06.785Z,44.30
2019-03-29T14:28:10.979Z,45.00
2019-03-29T14:31:15.232Z,43.20
2019-03-29T14:34:20.750Z,44.00
2019-03-29T14:37:25.006Z,43.40
2019-03-29T14:40:29.257Z,43.90
2019-03-29T14:43:33.449Z,44.50
2019-03-29T14:46:37.688Z,44.20
2019-03-29T14:49:41.929Z,44.00
2019-03-29T14:52:46.198Z,44.50
2019-03-29T14:55:50.564Z,44.70
2019-03-29T14:58:54.832Z,44.70
2019-03-29T15:01:59.026Z,45.80
2019-03-29T15:05:03.401Z,45.30
2019-03-29T15:08:07.702Z,45.90
2019-03-29T15:11:22.123Z,45.20
2019-03-29T15:14:18.004Z,45.70
2019-03-29T15:17:22.227Z,44.70
2019-03-29T15:20:26.523Z,43.40
2019-03-29T15:23:30.825Z,43.60
2019-03-29T15:26:35.069Z,43.00
2019-03-29T15:29:39.322Z,43.10
2019-03-29T15:32:43.500Z,42.70
2019-03-29T15:35:47.763Z,42.00
2019-03-29T15:38:52.301Z,43.10
2019-03-29T15:41:56.557Z,42.10
2019-03-29T15:45:00.839Z,42.30
2019-03-29T15:48:05.162Z,42.00
2019-03-29T15:51:09.585Z,42.50
2019-03-29T15:54:13.813Z,43.10
2019-03-29T15:57:18.138Z,43.50
2019-03-29T16:00:24.833Z,44.50
2019-03-29T16:03:29.129Z,44.50
2019-03-29T16:06:33.428Z,43.00
2019-03-29T16:09:37.633Z,44.00
2019-03-29T16:12:41.940Z,44.40
2019-03-29T16:15:46.177Z,45.10
2019-03-29T16:18:50.428Z,45.10
2019-03-29T16:21:54.934Z,45.00
2019-03-29T16:24:59.193Z,45.00
2019-03-29T16:28:03.657Z,45.40
2019-03-29T16:31:07.880Z,45.20
2019-03-29T16:34:12.073Z,45.20
2019-03-29T16:37:16.338Z,45.40
2019-03-29T16:40:20.671Z,45.40
2019-03-29T16:43:24.918Z,44.70
2019-03-29T16:46:29.136Z,44.30
2019-03-29T16:49:33.325Z,45.00
2019-03-29T16:52:37.628Z,45.10
2019-03-29T16:55:42.115Z,45.40
2019-03-29T16:58:46.513Z,45.30
2019-03-29T17:01:52.069Z,45.90
2019-03-29T17:04:56.289Z,45.90
2019-03-29T17:08:00.621Z,45.80
2019-03-29T17:11:05.104Z,45.70
2019-03-29T17:14:09.567Z,46.30
2019-03-29T17:17:13.836Z,46.60
2019-03-29T17:20:18.052Z,46.70
2019-03-29T17:23:23.237Z,47.00
2019-03-29T17:26:27.466Z,47.30
2019-03-29T17:29:31.776Z,47.10
2019-03-29T17:32:36.006Z,46.90
2019-03-29T17:35:40.240Z,46.40
2019-03-29T17:38:44.597Z,46.90
2019-03-29T17:41:48.848Z,48.00
2019-03-29T17:44:53.397Z,47.80
2019-03-29T17:47:57.889Z,47.80
2019-03-29T17:51:02.166Z,48.10
2019-03-29T17:54:06.389Z,47.70
2019-03-29T17:57:10.659Z,47.90
2019-03-29T18:00:17.092Z,47.90
2019-03-29T18:03:21.486Z,48.30
2019-03-29T18:06:26.140Z,48.60
2019-03-29T18:09:30.325Z,49.00
2019-03-29T18:12:34.894Z,47.90
2019-03-29T18:15:39.132Z,48.60
2019-03-29T18:18:43.369Z,48.50
2019-03-29T18:21:47.650Z,48.20
2019-03-29T18:24:51.862Z,48.30
2019-03-29T18:27:56.197Z,49.30
2019-03-29T18:31:00.439Z,49.10
2019-03-29T18:34:05.308Z,48.90
2019-03-29T18:37:10.299Z,49.00
2019-03-29T18:40:25.500Z,49.40
2019-03-29T18:43:29.845Z,50.10
2019-03-29T18:46:44.475Z,50.40
2019-03-29T18:49:40.508Z,50.60
2019-03-29T18:52:44.754Z,50.30
2019-03-29T18:55:48.980Z,50.60
2019-03-29T18:58:54.167Z,51.00
2019-03-29T19:01:58.407Z,51.50
2019-03-29T19:05:02.601Z,52.20
2019-03-29T19:08:06.899Z,52.80
2019-03-29T19:11:11.189Z,53.60
2019-03-29T19:14:15.555Z,53.50
2019-03-29T19:17:19.776Z,53.60
2019-03-29T19:20:28.005Z,54.40
2019-03-29T19:23:30.506Z,54.50
2019-03-29T19:26:34.716Z,54.80
2019-03-29T19:29:39.003Z,55.40
2019-03-29T19:32:43.283Z,55.40
2019-03-29T19:35:47.513Z,55.70
2019-03-29T19:38:51.772Z,56.00
2019-03-29T19:41:55.989Z,56.50
2019-03-29T19:45:00.410Z,56.70
2019-03-29T19:48:04.796Z,57.80
2019-03-29T19:51:08.989Z,57.60
2019-03-29T19:54:13.237Z,57.50
2019-03-29T19:57:17.563Z,57.80
2019-03-29T20:00:34.689Z,57.60
2019-03-29T20:03:39.021Z,57.80
2019-03-29T20:06:43.234Z,57.90
2019-03-29T20:09:47.477Z,59.10
2019-03-29T20:12:51.821Z,59.40
2019-03-29T20:15:56.121Z,59.70
2019-03-29T20:19:00.397Z,60.20
2019-03-29T20:22:04.660Z,59.90
2019-03-29T20:25:09.269Z,60.10
2019-03-29T20:28:13.456Z,60.00
2019-03-29T20:31:17.801Z,59.80
2019-03-29T20:34:22.036Z,60.00
2019-03-29T20:37:26.256Z,60.30
2019-03-29T20:40:32.107Z,60.90
2019-03-29T20:43:36.576Z,60.60
2019-03-29T20:46:40.809Z,60.80
2019-03-29T20:49:45.182Z,61.30
2019-03-29T20:52:50.493Z,61.30
2019-03-29T20:55:58.125Z,61.60
2019-03-29T20:59:01.025Z,61.20
2019-03-29T21:02:05.405Z,61.00
2019-03-29T21:05:09.801Z,61.10
2019-03-29T21:08:14.003Z,61.80
2019-03-29T21:11:18.392Z,61.80
2019-03-29T21:14:22.617Z,61.70
2019-03-29T21:17:26.850Z,62.30
2019-03-29T21:20:31.109Z,62.30
2019-03-29T21:23:35.317Z,62.20
2019-03-29T21:26:39.585Z,62.30
2019-03-29T21:29:44.928Z,62.30
2019-03-29T21:32:49.227Z,62.10
2019-03-29T21:35:53.522Z,62.40
2019-03-29T21:38:57.788Z,62.40
2019-03-29T21:42:02.065Z,62.50
2019-03-29T21:45:07.749Z,62.10
2019-03-29T21:48:28.143Z,62.30
2019-03-29T21:51:17.997Z,62.50
2019-03-29T21:54:22.216Z,63.50
2019-03-29T21:57:26.513Z,63.30
2019-03-29T22:00:30.841Z,63.90
2019-03-29T22:03:35.118Z,63.80
2019-03-29T22:06:39.403Z,64.00
2019-03-29T22:09:43.723Z,63.90
2019-03-29T22:12:48.007Z,64.40
2019-03-29T22:15:52.267Z,64.90
2019-03-29T22:18:56.573Z,64.40
2019-03-29T22:22:01.341Z,65.00
2019-03-29T22:25:06.749Z,64.40
2019-03-29T22:28:10.981Z,64.90
2019-03-29T22:31:15.243Z,64.90
2019-03-29T22:34:19.522Z,64.90
2019-03-29T22:37:23.842Z,65.00
2019-03-29T22:40:28.653Z,65.30
2019-03-29T22:43:33.294Z,65.50
2019-03-29T22:46:37.876Z,65.70
2019-03-29T22:49:42.119Z,65.80
2019-03-29T22:52:46.407Z,66.40
2019-03-29T22:55:50.596Z,66.10
2019-03-29T22:58:55.778Z,66.50
2019-03-29T23:02:00.223Z,67.10
2019-03-29T23:05:05.322Z,66.10
2019-03-29T23:08:09.809Z,66.50
2019-03-29T23:11:14.794Z,67.10
2019-03-29T23:14:19.048Z,66.60
2019-03-29T23:17:23.287Z,66.50
2019-03-29T23:20:27.600Z,67.20
2019-03-29T23:23:32.084Z,67.00
2019-03-29T23:26:36.345Z,66.80
2019-03-29T23:29:40.740Z,67.10
2019-03-29T23:32:44.966Z,67.20
2019-03-29T23:35:49.222Z,66.90
2019-03-29T23:38:53.401Z,67.50
2019-03-29T23:41:57.945Z,67.60
2019-03-29T23:45:02.280Z,68.60
2019-03-29T23:48:06.468Z,68.00
2019-03-29T23:51:10.714Z,67.20
2019-03-29T23:54:15.004Z,68.00
2019-03-29T23:57:19.230Z,67.90
